Time;durP1;ratioP1;P1;durP2;ratioP2;P2;SDS_P1;SDS_P2;PMS_P1;PMS_P2;Temp;Humidity;BMP_temperature;BMP_pressure;BME280_temperature;BME280_humidity;BME280_pressure;Samples;Min_cycle;Max_cycle;Signal;HPM_P1;HPM_P2
2022/03/27 00:02:23;;;;;;;10.73;6.95;;;;;;;;;;5033890;28;20087;-68
2022/03/27 00:04:49;;;;;;;9.95;6.97;;;;;;;;;;5032201;28;20053;-68
2022/03/27 00:07:15;;;;;;;12.18;7.63;;;;;;;;;;5033669;28;20088;-68
2022/03/27 00:09:42;;;;;;;14.70;8.35;;;;;;;;;;5033507;28;20049;-68
2022/03/27 00:12:08;;;;;;;13.77;7.90;;;;;;;;;;5033724;28;20044;-68
2022/03/27 00:14:34;;;;;;;16.10;8.38;;;;;;;;;;5032139;28;20041;-68
2022/03/27 00:17:00;;;;;;;14.77;8.10;;;;;;;;;;5033333;28;20366;-68
2022/03/27 00:19:26;;;;;;;14.02;8.07;;;;;;;;;;5031924;28;20045;-68
2022/03/27 00:21:52;;;;;;;14.02;8.60;;;;;;;;;;5033235;28;20132;-68
2022/03/27 00:24:18;;;;;;;15.25;8.50;;;;;;;;;;5033395;28;20084;-68
2022/03/27 00:26:44;;;;;;;14.85;8.25;;;;;;;;;;5033597;28;20065;-68
2022/03/27 00:29:10;;;;;;;14.55;8.25;;;;;;;;;;5031979;28;20096;-68
2022/03/27 00:31:38;;;;;;;16.75;9.15;;;;;;;;;;5033223;28;20515;-68
2022/03/27 00:34:04;;;;;;;13.80;8.15;;;;;;;;;;5031803;28;20053;-68
2022/03/27 00:36:30;;;;;;;15.63;8.40;;;;;;;;;;5032270;28;20084;-68
2022/03/27 00:38:56;;;;;;;16.38;9.23;;;;;;;;;;5033032;28;20092;-68
2022/03/27 00:41:24;;;;;;;17.00;9.25;;;;;;;;;;5033422;28;20045;-68
2022/03/27 00:43:50;;;;;;;19.13;10.20;;;;;;;;;;5039604;28;20511;-68
2022/03/27 00:46:16;;;;;;;15.07;9.07;;;;;;;;;;5053226;28;20045;-68
2022/03/27 00:48:42;;;;;;;16.85;9.25;;;;;;;;;;5054359;28;20045;-68
2022/03/27 00:51:08;;;;;;;16.73;9.60;;;;;;;;;;5035319;28;20056;-68
2022/03/27 00:53:34;;;;;;;17.70;8.90;;;;;;;;;;5052870;28;20037;-68
2022/03/27 00:56:00;;;;;;;19.08;9.50;;;;;;;;;;5045035;23;20474;-69
2022/03/27 00:58:26;;;;;;;17.83;10.02;;;;;;;;;;4976000;28;20429;-69
2022/03/27 01:01:04;;;;;;;17.90;10.07;;;;;;;;;;4980783;28;20047;-69
2022/03/27 01:03:31;;;;;;;16.08;8.98;;;;;;;;;;4974304;28;20045;-70
2022/03/27 01:05:57;;;;;;;15.25;9.00;;;;;;;;;;4976701;28;20077;-69
2022/03/27 01:11:11;;;;;;;20.05;9.63;;;;;;;;;;4993503;28;20129;-69
2022/03/27 01:13:37;;;;;;;19.33;10.55;;;;;;;;;;4993709;28;20058;-70
2022/03/27 01:16:03;;;;;;;19.90;10.23;;;;;;;;;;4994274;28;20050;-70
2022/03/27 01:18:29;;;;;;;19.80;10.85;;;;;;;;;;4994084;28;20050;-69
2022/03/27 01:20:55;;;;;;;19.38;10.45;;;;;;;;;;4994041;28;20122;-69
2022/03/27 01:23:21;;;;;;;18.38;10.50;;;;;;;;;;4994260;28;20070;-70
2022/03/27 01:25:47;;;;;;;19.90;10.70;;;;;;;;;;4993691;28;20133;-70
2022/03/27 01:28:14;;;;;;;20.35;10.32;;;;;;;;;;4993866;28;20129;-70
2022/03/27 01:30:40;;;;;;;18.65;10.50;;;;;;;;;;4975685;28;20057;-70
2022/03/27 01:33:09;;;;;;;20.17;10.63;;;;;;;;;;4993906;28;20042;-70
2022/03/27 01:35:35;;;;;;;22.83;10.32;;;;;;;;;;4976286;28;20112;-69
2022/03/27 01:38:02;;;;;;;22.40;10.73;;;;;;;;;;4976788;28;20058;-70
2022/03/27 01:40:28;;;;;;;20.10;10.98;;;;;;;;;;4976296;28;20446;-69
2022/03/27 01:42:55;;;;;;;21.08;10.63;;;;;;;;;;4976140;28;20082;-70
2022/03/27 01:45:21;;;;;;;20.52;11.35;;;;;;;;;;4960227;28;20046;-70
2022/03/27 01:47:48;;;;;;;20.80;11.23;;;;;;;;;;4979578;28;20042;-70
2022/03/27 01:50:13;;;;;;;22.60;11.15;;;;;;;;;;4979874;28;20073;-70
2022/03/27 01:52:40;;;;;;;23.27;11.25;;;;;;;;;;4979537;28;20479;-70
2022/03/27 01:55:16;;;;;;;23.75;11.32;;;;;;;;;;4979697;28;20039;-70
2022/03/27 01:57:42;;;;;;;23.45;11.10;;;;;;;;;;4996760;28;20093;-70
2022/03/27 02:00:09;;;;;;;21.35;10.90;;;;;;;;;;4997192;28;20057;-70
2022/03/27 02:02:36;;;;;;;21.90;11.02;;;;;;;;;;4979170;28;20042;-70
2022/03/27 02:05:02;;;;;;;19.50;10.95;;;;;;;;;;4982446;28;20054;-70
2022/03/27 02:07:34;;;;;;;24.05;11.75;;;;;;;;;;4977399;28;20053;-70
2022/03/27 02:10:00;;;;;;;21.80;11.35;;;;;;;;;;4977565;28;20536;-70
2022/03/27 02:12:26;;;;;;;20.50;11.15;;;;;;;;;;4977391;28;20082;-69
2022/03/27 02:14:52;;;;;;;31.70;12.38;;;;;;;;;;4959856;28;20183;-69
2022/03/27 02:17:18;;;;;;;24.30;12.23;;;;;;;;;;4977837;28;20121;-69
2022/03/27 02:19:44;;;;;;;25.88;12.27;;;;;;;;;;4944016;28;20125;-69
2022/03/27 02:22:11;;;;;;;22.95;11.18;;;;;;;;;;4944246;28;20043;-69
2022/03/27 02:24:37;;;;;;;23.83;11.77;;;;;;;;;;4959353;28;20046;-70
2022/03/27 02:27:04;;;;;;;30.08;12.40;;;;;;;;;;4977229;28;20047;-70
2022/03/27 02:29:32;;;;;;;24.80;13.13;;;;;;;;;;4977315;28;20043;-70
2022/03/27 02:31:58;;;;;;;28.15;13.20;;;;;;;;;;4977524;28;20145;-71
2022/03/27 02:34:24;;;;;;;24.08;12.00;;;;;;;;;;4976943;28;20083;-70
2022/03/27 02:36:50;;;;;;;22.42;11.90;;;;;;;;;;4959529;28;20082;-70
2022/03/27 02:39:16;;;;;;;34.40;13.68;;;;;;;;;;4959261;28;20077;-69
2022/03/27 02:41:42;;;;;;;27.92;12.82;;;;;;;;;;4977007;28;20130;-69
2022/03/27 02:44:09;;;;;;;23.33;12.52;;;;;;;;;;4976668;28;20070;-69
2022/03/27 02:46:35;;;;;;;26.67;12.32;;;;;;;;;;4959440;28;20043;-69
2022/03/27 02:49:01;;;;;;;25.48;12.75;;;;;;;;;;4943291;28;20051;-69
2022/03/27 02:51:27;;;;;;;28.20;13.43;;;;;;;;;;4943195;28;20055;-69
2022/03/27 02:53:53;;;;;;;25.88;12.65;;;;;;;;;;4959005;28;20050;-69
2022/03/27 02:56:19;;;;;;;29.85;12.90;;;;;;;;;;4958300;28;20090;-69
2022/03/27 02:58:45;;;;;;;29.75;13.23;;;;;;;;;;4957842;28;20453;-69
2022/03/27 03:01:11;;;;;;;28.23;13.80;;;;;;;;;;4959073;28;20050;-69
2022/03/27 03:03:37;;;;;;;27.70;13.40;;;;;;;;;;4958649;28;20130;-69
2022/03/27 03:06:06;;;;;;;32.85;14.13;;;;;;;;;;4976264;28;20056;-69
2022/03/27 03:08:34;;;;;;;32.55;13.65;;;;;;;;;;4975813;28;20502;-69
2022/03/27 03:11:00;;;;;;;30.08;12.38;;;;;;;;;;4958676;28;20051;-70
2022/03/27 03:13:26;;;;;;;28.73;12.07;;;;;;;;;;4942605;28;20043;-69
2022/03/27 03:15:52;;;;;;;33.72;13.27;;;;;;;;;;4976311;28;20043;-70
2022/03/27 03:18:18;;;;;;;33.42;13.13;;;;;;;;;;4958949;28;20050;-69
2022/03/27 03:20:44;;;;;;;33.63;13.55;;;;;;;;;;4976069;28;20043;-69
2022/03/27 03:23:11;;;;;;;30.40;11.90;;;;;;;;;;4958768;28;20050;-69
2022/03/27 03:25:37;;;;;;;33.25;12.98;;;;;;;;;;4958651;28;20501;-69
2022/03/27 03:28:03;;;;;;;31.75;12.55;;;;;;;;;;4976271;28;20125;-69
2022/03/27 03:30:30;;;;;;;34.00;12.82;;;;;;;;;;4958857;28;20050;-69
2022/03/27 03:32:56;;;;;;;29.05;11.90;;;;;;;;;;4975833;28;20450;-69
2022/03/27 03:35:22;;;;;;;30.00;12.40;;;;;;;;;;4975864;28;20114;-69
2022/03/27 03:37:48;;;;;;;28.65;12.23;;;;;;;;;;4975438;28;20356;-69
2022/03/27 03:40:14;;;;;;;34.55;12.52;;;;;;;;;;4975667;28;20085;-70
2022/03/27 03:42:41;;;;;;;32.05;12.52;;;;;;;;;;4958792;28;20047;-69
2022/03/27 03:45:07;;;;;;;37.72;13.68;;;;;;;;;;4959131;28;20057;-69
2022/03/27 03:47:33;;;;;;;30.55;12.68;;;;;;;;;;4976255;28;20093;-70
2022/03/27 03:49:59;;;;;;;37.00;12.48;;;;;;;;;;4975452;28;20046;-69
2022/03/27 03:52:26;;;;;;;33.20;12.93;;;;;;;;;;4958048;28;20050;-69
2022/03/27 03:54:52;;;;;;;26.65;11.73;;;;;;;;;;4975813;28;20431;-69
2022/03/27 03:57:18;;;;;;;36.35;12.20;;;;;;;;;;4957881;28;20082;-69
2022/03/27 03:59:44;;;;;;;27.90;11.35;;;;;;;;;;4975877;28;20090;-69
2022/03/27 04:02:13;;;;;;;28.60;12.65;;;;;;;;;;4957989;28;20491;-69
2022/03/27 04:04:39;;;;;;;25.75;11.00;;;;;;;;;;4977624;28;20043;-69
2022/03/27 04:07:05;;;;;;;25.85;11.10;;;;;;;;;;4977394;28;20050;-70
2022/03/27 04:09:32;;;;;;;27.85;11.88;;;;;;;;;;4977487;28;20042;-70
2022/03/27 04:11:58;;;;;;;33.83;11.68;;;;;;;;;;4979434;28;20126;-70
2022/03/27 04:14:24;;;;;;;28.30;11.65;;;;;;;;;;4961700;28;20042;-70
2022/03/27 04:16:50;;;;;;;28.17;11.98;;;;;;;;;;4961291;28;20418;-70
2022/03/27 04:19:16;;;;;;;36.97;11.93;;;;;;;;;;4962243;28;20077;-70
2022/03/27 04:21:42;;;;;;;36.83;11.63;;;;;;;;;;4979331;28;20080;-70
2022/03/27 04:24:08;;;;;;;33.45;11.48;;;;;;;;;;4960452;28;20043;-70
2022/03/27 04:26:38;;;;;;;35.80;12.35;;;;;;;;;;4958928;28;20082;-70
2022/03/27 04:29:05;;;;;;;30.83;11.43;;;;;;;;;;4957923;28;20042;-70
2022/03/27 04:31:31;;;;;;;34.72;11.40;;;;;;;;;;4957766;28;20454;-70
2022/03/27 04:33:57;;;;;;;29.70;10.18;;;;;;;;;;4974939;28;20062;-70
2022/03/27 04:36:23;;;;;;;25.92;9.98;;;;;;;;;;4957728;28;20093;-70
2022/03/27 04:38:49;;;;;;;31.02;10.82;;;;;;;;;;4975101;28;20051;-70
2022/03/27 04:41:15;;;;;;;28.63;10.10;;;;;;;;;;4975150;28;20474;-70
2022/03/27 04:43:43;;;;;;;40.60;12.27;;;;;;;;;;4974744;28;20043;-69
2022/03/27 04:46:09;;;;;;;28.67;9.95;;;;;;;;;;4957435;28;20414;-69
2022/03/27 04:48:35;;;;;;;29.52;9.90;;;;;;;;;;4975073;28;20042;-69
2022/03/27 04:51:01;;;;;;;30.35;10.43;;;;;;;;;;4974777;28;20051;-69
2022/03/27 04:53:27;;;;;;;29.92;10.68;;;;;;;;;;4974692;28;20161;-69
2022/03/27 04:55:53;;;;;;;59.28;15.90;;;;;;;;;;4957327;28;20410;-69
2022/03/27 04:58:19;;;;;;;63.85;14.90;;;;;;;;;;4975230;28;20055;-69
2022/03/27 05:00:45;;;;;;;43.40;11.52;;;;;;;;;;4974735;28;20051;-71
2022/03/27 05:03:11;;;;;;;47.92;12.98;;;;;;;;;;4974120;28;20553;-69
2022/03/27 05:05:38;;;;;;;35.45;10.30;;;;;;;;;;4974865;28;20417;-69
2022/03/27 05:08:05;;;;;;;99.55;20.55;;;;;;;;;;4974482;28;20046;-69
2022/03/27 05:10:31;;;;;;;48.00;12.35;;;;;;;;;;4975090;28;20050;-69
2022/03/27 05:12:57;;;;;;;49.65;13.65;;;;;;;;;;4975114;28;20046;-69
2022/03/27 05:15:23;;;;;;;41.55;12.38;;;;;;;;;;4974418;28;20047;-69
2022/03/27 05:17:51;;;;;;;46.65;12.43;;;;;;;;;;4974771;28;20049;-69
2022/03/27 05:20:17;;;;;;;39.65;11.73;;;;;;;;;;4974707;28;20055;-69
2022/03/27 05:22:44;;;;;;;44.20;12.23;;;;;;;;;;4960867;28;20089;-69
2022/03/27 05:25:11;;;;;;;37.08;10.40;;;;;;;;;;4960791;28;20047;-69
2022/03/27 05:27:44;;;;;;;33.72;10.73;;;;;;;;;;4960522;28;20054;-69
2022/03/27 05:30:10;;;;;;;36.55;10.85;;;;;;;;;;4978166;28;20085;-69
2022/03/27 05:32:37;;;;;;;37.33;10.82;;;;;;;;;;4978412;28;20422;-69
2022/03/27 05:35:04;;;;;;;42.28;12.23;;;;;;;;;;4944522;28;20054;-69
2022/03/27 05:37:31;;;;;;;33.47;9.93;;;;;;;;;;4978501;28;20039;-69
2022/03/27 05:39:56;;;;;;;47.28;12.73;;;;;;;;;;4977903;28;20047;-69
2022/03/27 05:42:22;;;;;;;33.05;10.40;;;;;;;;;;4960603;28;20467;-69
2022/03/27 05:44:49;;;;;;;33.88;11.75;;;;;;;;;;4978045;28;20122;-70
2022/03/27 05:47:15;;;;;;;34.92;10.77;;;;;;;;;;4960582;28;20051;-69
2022/03/27 05:49:41;;;;;;;59.53;12.77;;;;;;;;;;4977607;28;20053;-70
2022/03/27 05:52:07;;;;;;;53.97;12.32;;;;;;;;;;4977932;28;20051;-69
2022/03/27 05:54:33;;;;;;;42.08;10.05;;;;;;;;;;4978116;28;20042;-69
2022/03/27 05:56:59;;;;;;;47.17;10.55;;;;;;;;;;4977932;28;20395;-69
2022/03/27 05:59:25;;;;;;;34.60;10.02;;;;;;;;;;4960229;28;20055;-69
2022/03/27 06:01:51;;;;;;;51.30;12.27;;;;;;;;;;4961111;28;20383;-70
2022/03/27 06:04:17;;;;;;;50.83;11.88;;;;;;;;;;4979109;28;20050;-70
2022/03/27 06:06:43;;;;;;;45.30;11.00;;;;;;;;;;4960271;28;20135;-70
2022/03/27 06:09:09;;;;;;;41.78;10.40;;;;;;;;;;4959632;28;20049;-70
2022/03/27 06:11:35;;;;;;;42.80;10.43;;;;;;;;;;4959975;28;20691;-70
2022/03/27 06:14:01;;;;;;;41.95;9.98;;;;;;;;;;4977282;28;20134;-70
2022/03/27 06:16:27;;;;;;;39.72;10.38;;;;;;;;;;4977214;28;20043;-70
2022/03/27 06:18:53;;;;;;;44.08;11.02;;;;;;;;;;4977778;28;20053;-70
2022/03/27 06:21:19;;;;;;;49.78;12.25;;;;;;;;;;4977340;28;20517;-70
2022/03/27 06:23:45;;;;;;;47.83;11.75;;;;;;;;;;4977473;28;20051;-70
2022/03/27 06:26:11;;;;;;;46.25;12.27;;;;;;;;;;4977001;28;20043;-70
2022/03/27 06:28:37;;;;;;;63.25;16.92;;;;;;;;;;4959404;28;20376;-70
2022/03/27 06:31:04;;;;;;;51.55;15.35;;;;;;;;;;4959796;28;20241;-70
2022/03/27 06:33:30;;;;;;;51.35;14.80;;;;;;;;;;4959490;28;20074;-70
2022/03/27 06:36:01;;;;;;;;;;;;;;;;;;4960716;28;20046;-70
2022/03/27 06:38:28;;;;;;;110.40;24.88;;;;;;;;;;4959805;28;19922;-70
2022/03/27 06:40:55;;;;;;;57.83;15.25;;;;;;;;;;4977159;28;20486;-70
2022/03/27 06:43:22;;;;;;;90.78;21.13;;;;;;;;;;4976962;28;20495;-70
2022/03/27 06:45:49;;;;;;;89.13;19.50;;;;;;;;;;4966956;28;20047;-70
2022/03/27 06:48:15;;;;;;;56.33;15.15;;;;;;;;;;4965598;28;20125;-70
2022/03/27 06:50:41;;;;;;;64.88;17.05;;;;;;;;;;4968053;28;20073;-70
2022/03/27 06:53:07;;;;;;;54.85;15.70;;;;;;;;;;4947742;28;20035;-70
2022/03/27 06:55:34;;;;;;;44.58;14.10;;;;;;;;;;4966588;28;20051;-70
2022/03/27 06:58:00;;;;;;;53.45;13.70;;;;;;;;;;4964415;28;20066;-71
2022/03/27 07:03:11;;;;;;;57.13;12.57;;;;;;;;;;4951276;28;20442;-70
2022/03/27 07:05:39;;;;;;;59.42;14.23;;;;;;;;;;4942742;28;20497;-70
2022/03/27 07:08:06;;;;;;;53.78;12.85;;;;;;;;;;4967781;28;20124;-70
2022/03/27 07:10:32;;;;;;;39.88;9.75;;;;;;;;;;4968722;28;20040;-70
2022/03/27 07:12:58;;;;;;;45.85;9.82;;;;;;;;;;4965122;28;20043;-70
2022/03/27 07:15:24;;;;;;;45.53;11.13;;;;;;;;;;4966339;28;20043;-70
2022/03/27 07:17:50;;;;;;;49.15;11.77;;;;;;;;;;4964441;28;20126;-70
2022/03/27 07:20:17;;;;;;;59.42;11.63;;;;;;;;;;4930765;28;20055;-70
2022/03/27 07:22:43;;;;;;;41.40;9.27;;;;;;;;;;4965669;28;20054;-70
2022/03/27 07:25:10;;;;;;;46.20;8.60;;;;;;;;;;4967120;28;20080;-70
2022/03/27 07:27:37;;;;;;;31.85;8.38;;;;;;;;;;4961182;28;20047;-70
2022/03/27 07:30:04;;;;;;;38.78;8.85;;;;;;;;;;4956668;29;20083;-70
2022/03/27 07:32:30;;;;;;;42.33;9.93;;;;;;;;;;4964915;28;20075;-70
2022/03/27 07:34:57;;;;;;;39.90;8.73;;;;;;;;;;4964406;28;20141;-70
2022/03/27 07:37:23;;;;;;;31.92;8.40;;;;;;;;;;4965046;28;20060;-70
2022/03/27 07:39:49;;;;;;;44.45;10.73;;;;;;;;;;4963949;28;20462;-73
2022/03/27 07:42:15;;;;;;;46.25;10.50;;;;;;;;;;4933721;28;20069;-70
2022/03/27 07:44:41;;;;;;;45.15;9.25;;;;;;;;;;4970566;28;20490;-70
2022/03/27 07:47:08;;;;;;;47.53;9.18;;;;;;;;;;4977811;28;20490;-70
2022/03/27 07:49:34;;;;;;;55.42;10.63;;;;;;;;;;4976733;28;20047;-70
2022/03/27 07:52:05;;;;;;;39.92;10.00;;;;;;;;;;4955855;28;20082;-70
2022/03/27 07:54:32;;;;;;;41.45;8.82;;;;;;;;;;4966050;28;20085;-70
2022/03/27 07:56:58;;;;;;;40.50;7.93;;;;;;;;;;4948010;28;20086;-71
2022/03/27 07:59:25;;;;;;;46.55;9.35;;;;;;;;;;4967511;28;20074;-70
2022/03/27 08:01:51;;;;;;;36.97;8.52;;;;;;;;;;4948143;28;20118;-70
2022/03/27 08:04:17;;;;;;;41.47;8.43;;;;;;;;;;4965309;28;20039;-70
2022/03/27 08:06:46;;;;;;;33.83;8.35;;;;;;;;;;4963984;28;20085;-70
2022/03/27 08:09:12;;;;;;;42.20;9.25;;;;;;;;;;4964886;28;20047;-70
2022/03/27 08:11:41;;;;;;;41.72;8.20;;;;;;;;;;4962237;28;20101;-70
2022/03/27 08:14:08;;;;;;;44.35;8.02;;;;;;;;;;4956074;29;20122;-70
2022/03/27 08:16:34;;;;;;;44.47;8.55;;;;;;;;;;4956361;29;20066;-70
2022/03/27 08:19:00;;;;;;;45.40;9.05;;;;;;;;;;4955145;28;20062;-70
2022/03/27 08:21:26;;;;;;;40.42;8.88;;;;;;;;;;4923536;29;20159;-70
2022/03/27 08:23:55;;;;;;;57.35;10.80;;;;;;;;;;4956534;28;20043;-70
2022/03/27 08:29:06;;;;;;;49.67;9.68;;;;;;;;;;4956219;28;20047;-70
2022/03/27 08:31:33;;;;;;;45.60;10.32;;;;;;;;;;4956219;29;20130;-70
2022/03/27 08:33:59;;;;;;;40.45;9.45;;;;;;;;;;4956438;29;20047;-70
2022/03/27 08:36:26;;;;;;;36.10;7.57;;;;;;;;;;4938685;29;20151;-70
2022/03/27 08:38:52;;;;;;;38.00;7.80;;;;;;;;;;4955924;29;20118;-70
2022/03/27 08:41:19;;;;;;;35.35;7.97;;;;;;;;;;4954627;28;20047;-70
2022/03/27 08:43:46;;;;;;;42.63;8.15;;;;;;;;;;4938084;29;20637;-70
2022/03/27 08:46:13;;;;;;;44.53;8.40;;;;;;;;;;4955714;29;20142;-70
2022/03/27 08:48:39;;;;;;;44.13;9.32;;;;;;;;;;4955603;29;20049;-70
2022/03/27 08:51:26;;;;;;;37.88;8.30;;;;;;;;;;4955363;29;20036;-70
2022/03/27 08:54:14;;;;;;;47.90;9.30;;;;;;;;;;4938361;29;20403;-70
2022/03/27 08:56:40;;;;;;;35.37;7.70;;;;;;;;;;4957582;28;20056;-70
2022/03/27 08:59:07;;;;;;;42.13;9.23;;;;;;;;;;4959625;29;20055;-70
2022/03/27 09:01:34;;;;;;;41.58;8.38;;;;;;;;;;4958268;29;20051;-70
2022/03/27 09:04:00;;;;;;;28.45;6.70;;;;;;;;;;4958211;29;20058;-70
2022/03/27 09:06:26;;;;;;;37.72;7.93;;;;;;;;;;4959073;29;20430;-70
2022/03/27 09:08:53;;;;;;;35.25;8.05;;;;;;;;;;4926238;29;20047;-70
2022/03/27 09:11:19;;;;;;;43.70;8.93;;;;;;;;;;4959396;29;20054;-70
2022/03/27 09:13:47;;;;;;;35.80;8.48;;;;;;;;;;4959461;29;20122;-70
2022/03/27 09:16:13;;;;;;;67.28;12.82;;;;;;;;;;4926354;29;20134;-70
2022/03/27 09:18:43;;;;;;;57.30;13.55;;;;;;;;;;4967106;28;20449;-70
2022/03/27 09:21:09;;;;;;;41.00;9.15;;;;;;;;;;4934697;28;20050;-70
2022/03/27 09:23:36;;;;;;;42.08;9.07;;;;;;;;;;4944894;29;20074;-69
2022/03/27 09:26:11;;;;;;;40.67;9.43;;;;;;;;;;4959237;29;20050;-69
2022/03/27 09:28:37;;;;;;;36.63;8.02;;;;;;;;;;4958573;29;20565;-70
2022/03/27 09:31:20;;;;;;;39.25;7.93;;;;;;;;;;4959124;29;20043;-70
2022/03/27 09:33:56;;;;;;;45.20;9.45;;;;;;;;;;4957373;28;20059;-70
2022/03/27 09:36:26;;;;;;;45.42;9.98;;;;;;;;;;4958691;29;20078;-70
2022/03/27 09:39:09;;;;;;;40.45;9.77;;;;;;;;;;4958901;29;20043;-69
2022/03/27 09:41:37;;;;;;;40.10;8.75;;;;;;;;;;4958852;28;20154;-70
2022/03/27 09:44:17;;;;;;;45.70;10.35;;;;;;;;;;4941544;28;20047;-70
2022/03/27 09:46:47;;;;;;;38.30;9.88;;;;;;;;;;4958479;28;20475;-71
2022/03/27 09:49:13;;;;;;;43.83;9.88;;;;;;;;;;4958833;29;20502;-70
2022/03/27 09:52:00;;;;;;;56.33;9.70;;;;;;;;;;4925431;29;20058;-70
2022/03/27 09:54:27;;;;;;;47.83;9.90;;;;;;;;;;4956927;29;20055;-70
2022/03/27 09:56:54;;;;;;;33.00;7.97;;;;;;;;;;4958132;29;20059;-70
2022/03/27 09:59:28;;;;;;;51.05;11.80;;;;;;;;;;4956682;29;20491;-69
2022/03/27 10:01:54;;;;;;;83.70;17.17;;;;;;;;;;4958697;29;20055;-69
2022/03/27 10:04:22;;;;;;;35.45;8.48;;;;;;;;;;4958339;29;20047;-70
2022/03/27 10:06:48;;;;;;;45.10;9.48;;;;;;;;;;4957762;28;20486;-69
2022/03/27 10:09:14;;;;;;;41.35;8.82;;;;;;;;;;4925164;28;20143;-71
2022/03/27 10:11:42;;;;;;;38.15;8.95;;;;;;;;;;4958397;29;20047;-69
2022/03/27 10:14:08;;;;;;;44.88;9.15;;;;;;;;;;4957833;29;20040;-71
2022/03/27 10:16:36;;;;;;;33.22;8.82;;;;;;;;;;4940592;29;20134;-71
2022/03/27 10:19:06;;;;;;;37.25;9.70;;;;;;;;;;4958256;28;20087;-69
2022/03/27 10:21:33;;;;;;;39.60;9.25;;;;;;;;;;4957654;29;20055;-70
2022/03/27 10:24:30;;;;;;;38.40;8.20;;;;;;;;;;4958222;28;20048;-70
2022/03/27 10:26:58;;;;;;;31.23;7.68;;;;;;;;;;4941294;29;20138;-71
2022/03/27 10:29:25;;;;;;;38.67;8.23;;;;;;;;;;4956668;29;20043;-69
2022/03/27 10:31:52;;;;;;;37.58;8.40;;;;;;;;;;4957943;28;20130;-70
2022/03/27 10:34:20;;;;;;;37.65;8.05;;;;;;;;;;4958110;29;20051;-71
2022/03/27 10:36:52;;;;;;;32.20;8.82;;;;;;;;;;4956491;28;20130;-70
2022/03/27 10:39:37;;;;;;;37.45;8.30;;;;;;;;;;4940259;29;20052;-71
2022/03/27 10:42:03;;;;;;;30.02;7.50;;;;;;;;;;4957529;29;20051;-72
2022/03/27 10:44:36;;;;;;;31.83;7.28;;;;;;;;;;4957510;29;20043;-71
2022/03/27 10:47:12;;;;;;;29.77;8.00;;;;;;;;;;4956083;29;20059;-70
2022/03/27 10:49:38;;;;;;;29.67;6.88;;;;;;;;;;4957275;29;20086;-71
2022/03/27 10:52:05;;;;;;;25.45;7.50;;;;;;;;;;4957236;29;20487;-71
2022/03/27 10:54:32;;;;;;;26.60;6.80;;;;;;;;;;4957479;29;20078;-71
2022/03/27 10:56:58;;;;;;;29.38;6.93;;;;;;;;;;4956799;28;20566;-71
2022/03/27 10:59:26;;;;;;;35.25;8.13;;;;;;;;;;4956165;28;20440;-71
2022/03/27 11:01:52;;;;;;;27.77;7.10;;;;;;;;;;4957352;29;20448;-70
2022/03/27 11:04:18;;;;;;;29.33;7.68;;;;;;;;;;4957119;29;20122;-71
2022/03/27 11:06:51;;;;;;;42.00;9.60;;;;;;;;;;4939625;29;20510;-69
2022/03/27 11:09:31;;;;;;;28.45;7.40;;;;;;;;;;4923844;29;20494;-70
2022/03/27 11:11:58;;;;;;;27.13;7.60;;;;;;;;;;4940192;29;20051;-69
2022/03/27 11:14:25;;;;;;;32.42;7.07;;;;;;;;;;4958268;29;20557;-69
2022/03/27 11:17:12;;;;;;;32.53;7.93;;;;;;;;;;4939911;29;20058;-69
2022/03/27 11:19:45;;;;;;;30.98;7.18;;;;;;;;;;4956659;28;20043;-72
2022/03/27 11:22:30;;;;;;;54.78;11.10;;;;;;;;;;4956624;28;20043;-72
2022/03/27 11:25:15;;;;;;;31.85;7.65;;;;;;;;;;4939294;29;20058;-74
2022/03/27 11:27:59;;;;;;;47.78;10.55;;;;;;;;;;4956859;29;20382;-73
2022/03/27 11:30:25;;;;;;;41.60;9.55;;;;;;;;;;4955199;29;20427;-74
2022/03/27 11:33:11;;;;;;;24.23;6.50;;;;;;;;;;4956871;28;20110;-73
2022/03/27 11:35:37;;;;;;;27.73;7.45;;;;;;;;;;4939148;29;20047;-72
2022/03/27 11:38:19;;;;;;;26.63;7.15;;;;;;;;;;4956530;29;20086;-73
2022/03/27 11:40:45;;;;;;;29.17;7.45;;;;;;;;;;4956871;29;20138;-73
2022/03/27 11:43:27;;;;;;;25.17;6.70;;;;;;;;;;4956640;29;20051;-73
2022/03/27 11:45:55;;;;;;;23.48;6.05;;;;;;;;;;4956941;29;20043;-73
2022/03/27 11:48:21;;;;;;;23.65;6.20;;;;;;;;;;4956493;29;20047;-73
2022/03/27 11:50:47;;;;;;;28.65;7.22;;;;;;;;;;4956273;29;20083;-73
2022/03/27 11:53:13;;;;;;;24.73;6.40;;;;;;;;;;4939018;29;20075;-73
2022/03/27 11:55:39;;;;;;;31.38;6.88;;;;;;;;;;4956283;28;20386;-72
2022/03/27 11:58:07;;;;;;;27.55;7.40;;;;;;;;;;4956699;29;20094;-73
2022/03/27 12:00:35;;;;;;;29.92;7.00;;;;;;;;;;4956292;29;20062;-74
2022/03/27 12:03:02;;;;;;;30.90;7.68;;;;;;;;;;4956408;28;20047;-73
2022/03/27 12:05:35;;;;;;;29.92;7.35;;;;;;;;;;4956709;29;20191;-73
2022/03/27 12:08:01;;;;;;;23.38;5.82;;;;;;;;;;4955774;28;20058;-74
2022/03/27 12:10:27;;;;;;;24.88;5.50;;;;;;;;;;4956499;29;20130;-73
2022/03/27 12:12:57;;;;;;;18.83;5.72;;;;;;;;;;4955507;29;20447;-74
2022/03/27 12:15:35;;;;;;;22.17;5.72;;;;;;;;;;4938534;29;20106;-74
2022/03/27 12:18:02;;;;;;;21.80;5.80;;;;;;;;;;4939254;29;20142;-74
2022/03/27 12:20:28;;;;;;;25.60;6.57;;;;;;;;;;4938377;29;20078;-73
2022/03/27 12:22:56;;;;;;;26.83;6.88;;;;;;;;;;4955940;29;20122;-71
2022/03/27 12:25:22;;;;;;;21.30;6.28;;;;;;;;;;4937987;29;20056;-73
2022/03/27 12:30:49;;;;;;;18.02;4.93;;;;;;;;;;4955452;28;20051;-75
2022/03/27 12:33:18;;;;;;;20.55;5.03;;;;;;;;;;4955470;29;20054;-73
2022/03/27 12:35:45;;;;;;;21.58;5.05;;;;;;;;;;4955356;29;20054;-72
2022/03/27 12:38:11;;;;;;;27.60;6.03;;;;;;;;;;4955558;28;20094;-72
2022/03/27 12:40:44;;;;;;;20.42;5.90;;;;;;;;;;4938679;29;20051;-72
2022/03/27 12:43:11;;;;;;;19.98;5.63;;;;;;;;;;4955275;28;20392;-72
2022/03/27 12:45:40;;;;;;;26.03;6.83;;;;;;;;;;4955901;29;20047;-73
2022/03/27 12:48:06;;;;;;;19.38;5.13;;;;;;;;;;4954048;28;20303;-74
2022/03/27 12:50:33;;;;;;;22.77;6.70;;;;;;;;;;4955618;29;20074;-72
2022/03/27 12:53:04;;;;;;;31.85;8.60;;;;;;;;;;4953913;29;20474;-74
2022/03/27 12:55:43;;;;;;;26.00;6.68;;;;;;;;;;4937887;28;20079;-74
2022/03/27 12:58:13;;;;;;;17.50;4.95;;;;;;;;;;4954926;29;20063;-73
2022/03/27 13:00:43;;;;;;;18.60;5.90;;;;;;;;;;4955074;28;20514;-73
2022/03/27 13:03:14;;;;;;;17.70;5.53;;;;;;;;;;4955275;29;20062;-74
2022/03/27 13:05:40;;;;;;;18.98;5.32;;;;;;;;;;4955682;29;20129;-74
2022/03/27 13:08:08;;;;;;;24.23;6.30;;;;;;;;;;4955097;29;20056;-73
2022/03/27 13:10:37;;;;;;;18.52;4.63;;;;;;;;;;4906458;29;20435;-73
2022/03/27 13:13:13;;;;;;;17.83;5.53;;;;;;;;;;4937847;29;20103;-73
2022/03/27 13:15:41;;;;;;;19.17;5.05;;;;;;;;;;4921823;29;20047;-73
2022/03/27 13:18:12;;;;;;;16.50;4.63;;;;;;;;;;4955224;29;20043;-74
2022/03/27 13:20:38;;;;;;;19.40;5.15;;;;;;;;;;4937816;29;20546;-73
2022/03/27 13:23:04;;;;;;;15.40;4.38;;;;;;;;;;4955239;29;20047;-74
2022/03/27 13:25:31;;;;;;;14.18;4.10;;;;;;;;;;4938145;29;20044;-74
2022/03/27 13:27:57;;;;;;;16.10;4.70;;;;;;;;;;4955088;29;20094;-74
2022/03/27 13:30:24;;;;;;;15.85;4.70;;;;;;;;;;4937794;29;20047;-73
2022/03/27 13:32:50;;;;;;;17.10;4.88;;;;;;;;;;4954028;29;20443;-74
2022/03/27 13:35:17;;;;;;;16.13;4.90;;;;;;;;;;4954361;28;20391;-73
2022/03/27 13:37:43;;;;;;;26.63;5.43;;;;;;;;;;4955191;29;20039;-74
2022/03/27 13:40:10;;;;;;;19.92;5.85;;;;;;;;;;4953529;28;20059;-72
2022/03/27 13:45:21;;;;;;;19.90;5.07;;;;;;;;;;4955861;28;20509;-73
2022/03/27 13:47:47;;;;;;;20.67;5.45;;;;;;;;;;4977607;28;20043;-73
2022/03/27 13:50:13;;;;;;;21.30;5.50;;;;;;;;;;4960536;28;20054;-73
2022/03/27 13:52:39;;;;;;;15.80;4.95;;;;;;;;;;4960699;28;20050;-73
2022/03/27 13:55:06;;;;;;;20.10;6.13;;;;;;;;;;4960462;28;20046;-74
2022/03/27 13:57:32;;;;;;;19.25;4.43;;;;;;;;;;4959861;28;20061;-74
2022/03/27 14:00:03;;;;;;;25.35;6.88;;;;;;;;;;4960566;28;20474;-75
2022/03/27 14:02:29;;;;;;;19.03;5.43;;;;;;;;;;4977557;28;20053;-75
2022/03/27 14:04:57;;;;;;;18.15;4.60;;;;;;;;;;4976186;28;20367;-74
2022/03/27 14:07:23;;;;;;;18.80;5.38;;;;;;;;;;4977389;28;20051;-74
2022/03/27 14:09:49;;;;;;;16.15;4.72;;;;;;;;;;4977450;28;20043;-74
2022/03/27 14:12:15;;;;;;;20.42;6.05;;;;;;;;;;4977343;28;20046;-73
2022/03/27 14:14:41;;;;;;;17.70;4.70;;;;;;;;;;4977303;28;20049;-73
2022/03/27 14:17:08;;;;;;;17.23;4.82;;;;;;;;;;4959648;28;20505;-74
2022/03/27 14:19:34;;;;;;;20.67;5.68;;;;;;;;;;4977388;28;20081;-74
2022/03/27 14:22:02;;;;;;;19.45;5.00;;;;;;;;;;4977348;28;20074;-74
2022/03/27 14:24:28;;;;;;;20.67;5.90;;;;;;;;;;4959822;28;20104;-73
2022/03/27 14:26:54;;;;;;;20.92;6.47;;;;;;;;;;4967519;28;20043;-74
2022/03/27 14:29:21;;;;;;;14.13;4.82;;;;;;;;;;4967175;28;20065;-73
2022/03/27 14:31:52;;;;;;;14.68;4.22;;;;;;;;;;4966914;28;20043;-74
2022/03/27 14:34:18;;;;;;;17.00;4.25;;;;;;;;;;4960298;28;20407;-74
2022/03/27 14:36:45;;;;;;;13.77;4.47;;;;;;;;;;4962594;28;20495;-74
2022/03/27 14:39:11;;;;;;;17.02;5.03;;;;;;;;;;4957324;28;20482;-73
2022/03/27 14:41:37;;;;;;;18.15;4.93;;;;;;;;;;4959504;28;20051;-73